createdAt,value
2018-09-23T00:02:44.547Z,7.40
2018-09-23T00:05:13.447Z,7.20
2018-09-23T00:07:42.318Z,7.30
2018-09-23T01:02:42.565Z,6.20
2018-09-23T01:05:11.323Z,6.20
2018-09-23T01:07:40.084Z,6.40
2018-09-23T01:10:08.805Z,6.60
2018-09-23T02:02:49.364Z,6.30
2018-09-23T02:05:18.052Z,6.30
2018-09-23T02:07:46.797Z,6.50
2018-09-23T03:02:58.380Z,5.90
2018-09-23T03:05:27.106Z,6.10
2018-09-23T03:07:56.599Z,6.20
2018-09-23T04:02:43.544Z,7.10
2018-09-23T04:05:12.237Z,7.20
2018-09-23T04:07:40.925Z,7.30
2018-09-23T05:02:49.190Z,7.70
2018-09-23T05:05:18.026Z,7.80
2018-09-23T05:07:46.886Z,8.00
2018-09-23T06:02:41.737Z,9.20
2018-09-23T06:05:10.470Z,9.40
2018-09-23T06:07:39.155Z,9.60
2018-09-23T07:02:40.405Z,10.70
2018-09-23T07:05:09.258Z,10.70
2018-09-23T07:07:38.932Z,10.80
2018-09-23T07:10:08.613Z,11.00
2018-09-23T08:02:35.202Z,12.00
2018-09-23T08:05:03.950Z,12.10
2018-09-23T08:07:32.661Z,12.20
2018-09-23T08:10:01.477Z,12.40
2018-09-23T09:02:38.889Z,13.40
2018-09-23T09:05:07.662Z,13.50
2018-09-23T09:07:36.855Z,13.80
2018-09-23T10:02:36.041Z,14.30
2018-09-23T10:05:04.918Z,14.30
2018-09-23T10:07:33.640Z,14.60
2018-09-23T10:10:02.411Z,14.70
2018-09-23T11:02:38.428Z,16.00
2018-09-23T11:05:07.191Z,15.90
2018-09-23T11:07:35.993Z,15.90
2018-09-23T11:10:05.224Z,15.70
2018-09-23T12:02:35.837Z,15.90
2018-09-23T12:05:04.612Z,15.70
2018-09-23T12:07:33.320Z,15.60
2018-09-23T12:10:02.045Z,15.90
2018-09-23T13:02:38.868Z,16.40
2018-09-23T13:05:07.770Z,16.20
2018-09-23T13:07:36.525Z,16.70
2018-09-23T13:10:05.387Z,16.70
2018-09-23T14:02:37.336Z,16.90
2018-09-23T14:05:06.112Z,15.90
2018-09-23T14:07:34.943Z,15.90
2018-09-23T14:10:03.713Z,15.50
2018-09-23T15:02:41.832Z,13.60
2018-09-23T15:05:10.521Z,13.60
2018-09-23T15:07:39.459Z,13.70
2018-09-23T17:02:42.069Z,10.20
2018-09-23T17:05:10.869Z,10.10
2018-09-23T17:07:39.609Z,10.30
2018-09-23T17:10:10.999Z,10.50
2018-09-23T18:02:38.665Z,9.90
2018-09-23T18:05:07.441Z,10.00
2018-09-23T18:07:36.164Z,10.20
2018-09-23T18:10:05.175Z,10.30
2018-09-23T19:02:35.469Z,9.90
2018-09-23T19:05:04.201Z,9.90
2018-09-23T19:07:32.973Z,10.10
2018-09-23T19:10:01.745Z,10.30
2018-09-23T20:02:38.817Z,9.80
2018-09-23T20:05:07.643Z,9.90
2018-09-23T20:07:36.575Z,10.10
2018-09-23T20:10:05.467Z,10.20
2018-09-23T21:02:35.246Z,10.00
2018-09-23T21:05:04.323Z,10.00
2018-09-23T21:07:33.274Z,10.10
2018-09-23T21:10:02.681Z,10.40
2018-09-23T22:02:35.646Z,9.80
2018-09-23T22:05:04.466Z,9.80
2018-09-23T22:07:33.314Z,9.90
2018-09-23T22:10:02.225Z,10.10
2018-09-23T22:12:31.118Z,10.30
2018-09-23T22:14:59.973Z,10.50
2018-09-23T22:17:28.824Z,10.60
2018-09-23T22:20:00.769Z,10.70
2018-09-23T22:22:30.109Z,10.80
2018-09-23T22:24:59.701Z,10.80
2018-09-23T22:27:28.515Z,10.90
2018-09-23T22:29:57.386Z,10.90
2018-09-23T22:32:26.331Z,11.00
2018-09-23T22:34:55.125Z,11.00
2018-09-23T22:37:23.943Z,11.10
2018-09-23T22:39:52.813Z,11.10
2018-09-23T22:42:21.629Z,11.10
2018-09-23T22:44:50.428Z,11.10
2018-09-23T22:47:24.381Z,11.20
2018-09-23T22:49:53.434Z,11.20
2018-09-23T22:52:22.301Z,11.10
2018-09-23T22:54:51.148Z,11.00
2018-09-23T22:57:19.987Z,10.90
2018-09-23T22:59:49.133Z,11.00
2018-09-23T23:02:18.052Z,10.90
2018-09-23T23:04:46.784Z,10.80
2018-09-23T23:07:15.851Z,10.90
2018-09-23T23:09:44.568Z,10.80
